Time;durP1;ratioP1;P1;durP2;ratioP2;P2;SDS_P1;SDS_P2;PMS_P1;PMS_P2;Temp;Humidity;BMP_temperature;BMP_pressure;BME280_temperature;BME280_humidity;BME280_pressure;Samples;Min_cycle;Max_cycle;Signal;HPM_P1;HPM_P2
2024/01/04 00:03:40;;;;;;;0.20;0.15;;;;;;;8.93;74.86;98555.59;15610687;28;20037;-48
2024/01/04 00:11:14;;;;;;;0.00;0.00;;;;;;;8.88;74.55;98552.84;15616888;28;20075;-49
2024/01/04 00:18:49;;;;;;;0.00;0.00;;;;;;;8.85;74.61;98556.03;15621526;28;20029;-48
2024/01/04 00:26:23;;;;;;;0.00;0.00;;;;;;;9.06;74.20;98565.06;15620791;28;20045;-52
2024/01/04 00:34:02;;;;;;;0.00;0.00;;;;;;;8.84;74.02;98573.16;15603399;28;20037;-47
2024/01/04 00:41:36;;;;;;;0.00;0.00;;;;;;;8.91;73.71;98574.56;15602644;28;20638;-47
2024/01/04 00:49:12;;;;;;;0.00;0.00;;;;;;;9.00;72.91;98579.44;15593876;28;20075;-48
2024/01/04 00:56:46;;;;;;;0.05;0.05;;;;;;;8.93;73.35;98579.66;15601605;28;20481;-51
2024/01/04 01:04:21;;;;;;;0.65;0.52;;;;;;;9.06;72.83;98581.94;15665523;22;20049;-53
2024/01/04 01:11:55;;;;;;;0.00;0.00;;;;;;;8.88;73.43;98580.41;15663947;28;20084;-51
2024/01/04 01:19:29;;;;;;;0.00;0.00;;;;;;;9.19;72.46;98588.75;15661246;28;20033;-53
2024/01/04 01:27:03;;;;;;;0.00;0.00;;;;;;;8.89;72.66;98592.72;15679759;28;20068;-51
2024/01/04 01:34:42;;;;;;;0.00;0.00;;;;;;;9.14;71.81;98594.88;15660039;28;20045;-53
2024/01/04 01:42:20;;;;;;;0.00;0.00;;;;;;;9.16;71.09;98598.09;15660291;28;20064;-52
2024/01/04 01:49:55;;;;;;;0.00;0.00;;;;;;;8.99;71.30;98592.03;15652063;28;20037;-51
2024/01/04 01:57:33;;;;;;;0.00;0.00;;;;;;;9.04;71.16;98608.13;15636155;28;20052;-53
2024/01/04 02:05:09;;;;;;;0.00;0.00;;;;;;;9.04;71.12;98602.78;15658075;28;20091;-51
2024/01/04 02:12:43;;;;;;;0.00;0.00;;;;;;;9.00;70.95;98612.38;15658676;28;20049;-52
2024/01/04 02:20:20;;;;;;;0.00;0.00;;;;;;;9.00;72.64;98607.03;15656774;28;20049;-54
2024/01/04 02:27:55;;;;;;;0.00;0.00;;;;;;;8.89;72.68;98603.44;15641100;28;20052;-54
2024/01/04 02:35:28;;;;;;;0.00;0.00;;;;;;;8.76;72.46;98598.47;15647764;28;20041;-52
2024/01/04 02:43:08;;;;;;;0.00;0.00;;;;;;;8.65;74.28;98608.25;15675048;28;20041;-51
2024/01/04 02:50:43;;;;;;;0.00;0.00;;;;;;;8.39;76.81;98606.31;15658877;28;20032;-53
2024/01/04 02:58:18;;;;;;;0.00;0.00;;;;;;;8.47;77.19;98608.56;15658417;28;20120;-54
2024/01/04 03:05:56;;;;;;;0.00;0.00;;;;;;;8.54;77.74;98606.53;15673681;28;20485;-50
2024/01/04 03:13:30;;;;;;;;;;;;;;;8.53;77.52;98606.75;15651194;28;20037;-52
2024/01/04 03:21:06;;;;;;;0.00;0.00;;;;;;;8.32;78.55;98608.34;15674012;28;20321;-49
2024/01/04 03:28:41;;;;;;;0.00;0.00;;;;;;;8.26;80.04;98606.69;15655939;28;20072;-51
2024/01/04 03:36:14;;;;;;;0.00;0.00;;;;;;;8.02;80.92;98617.59;15672188;28;20056;-52
2024/01/04 03:43:49;;;;;;;0.55;0.55;;;;;;;8.23;79.86;98624.00;15660001;28;20045;-53
2024/01/04 03:51:23;;;;;;;0.00;0.00;;;;;;;7.97;81.01;98614.81;15657827;28;20430;-51
2024/01/04 03:58:59;;;;;;;0.00;0.00;;;;;;;7.79;82.06;98631.13;15666142;28;20383;-51
2024/01/04 04:06:32;;;;;;;0.00;0.00;;;;;;;7.98;80.86;98629.81;15683297;28;20048;-52
2024/01/04 04:14:09;;;;;;;0.00;0.00;;;;;;;7.61;83.89;98634.84;15684055;28;20513;-53
2024/01/04 04:21:43;;;;;;;0.00;0.00;;;;;;;7.62;84.61;98633.78;15686388;28;20041;-52
2024/01/04 04:29:20;;;;;;;0.00;0.00;;;;;;;7.54;85.19;98631.50;15667808;28;20041;-53
2024/01/04 04:36:54;;;;;;;0.00;0.00;;;;;;;7.39;85.70;98635.53;15664830;28;20040;-53
2024/01/04 04:44:31;;;;;;;0.00;0.00;;;;;;;7.77;84.74;98646.56;15677233;28;20046;-53
2024/01/04 04:52:05;;;;;;;0.00;0.00;;;;;;;7.28;86.28;98660.44;15678144;28;20041;-54
2024/01/04 04:59:39;;;;;;;1.10;0.65;;;;;;;7.71;84.72;98663.56;15679763;28;20099;-55
2024/01/04 05:07:13;;;;;;;0.00;0.00;;;;;;;7.82;85.08;98681.34;15681868;28;20505;-50
2024/01/04 05:14:48;;;;;;;0.20;0.20;;;;;;;7.61;85.50;98686.38;15649366;28;20057;-51
2024/01/04 05:22:22;;;;;;;0.00;0.00;;;;;;;7.70;84.54;98691.31;15689558;28;20048;-51
2024/01/04 05:29:58;;;;;;;0.00;0.00;;;;;;;7.75;83.79;98702.09;15690971;28;20444;-52
2024/01/04 05:37:35;;;;;;;0.00;0.00;;;;;;;7.35;84.43;98703.78;15650077;28;20041;-52
2024/01/04 05:45:16;;;;;;;0.00;0.00;;;;;;;7.67;83.60;98709.44;15653992;28;20084;-51
2024/01/04 05:52:50;;;;;;;0.00;0.00;;;;;;;7.46;84.88;98720.81;15678403;28;20166;-52
2024/01/04 06:00:26;;;;;;;0.00;0.00;;;;;;;7.55;84.09;98730.03;15677365;28;20106;-51
2024/01/04 06:08:07;;;;;;;0.00;0.00;;;;;;;7.57;83.78;98743.97;15674860;28;20049;-52
2024/01/04 06:15:42;;;;;;;0.10;0.10;;;;;;;7.46;83.88;98754.69;15677956;28;20041;-52
2024/01/04 06:23:16;;;;;;;0.00;0.00;;;;;;;7.53;82.97;98764.19;15658373;28;20139;-54
2024/01/04 06:30:50;;;;;;;0.00;0.00;;;;;;;7.44;82.21;98775.47;15676311;28;20367;-52
2024/01/04 06:38:27;;;;;;;0.00;0.00;;;;;;;7.21;82.57;98795.03;15674760;28;20045;-52
2024/01/04 06:46:02;;;;;;;;;;;;;;;7.22;82.09;98794.00;15669668;28;20041;-51
2024/01/04 06:53:36;;;;;;;0.00;0.00;;;;;;;7.06;81.31;98812.34;15675034;28;20015;-51
2024/01/04 07:01:11;;;;;;;0.00;0.00;;;;;;;6.79;81.40;98824.56;15647984;22;20137;-50
2024/01/04 07:08:46;;;;;;;0.00;0.00;;;;;;;7.22;79.44;98853.50;15593589;28;20045;-51
2024/01/04 07:16:21;;;;;;;0.15;0.15;;;;;;;6.57;81.97;98878.44;15578458;28;20052;-49
2024/01/04 07:23:55;;;;;;;0.00;0.00;;;;;;;6.16;83.75;98889.13;15610454;28;20038;-47
2024/01/04 07:31:29;;;;;;;0.32;0.32;;;;;;;5.67;83.59;98913.06;15611491;28;20069;-52
2024/01/04 07:39:03;;;;;;;0.00;0.00;;;;;;;5.51;83.00;98916.34;15611458;28;20490;-49
2024/01/04 07:46:41;;;;;;;0.00;0.00;;;;;;;5.49;81.42;98937.84;15610853;28;20045;-50
2024/01/04 07:54:14;;;;;;;0.00;0.00;;;;;;;5.29;81.67;98929.25;15593498;28;20437;-50
2024/01/04 08:01:49;;;;;;;0.00;0.00;;;;;;;5.20;81.44;98935.91;15610922;28;20112;-52
2024/01/04 08:09:23;;;;;;;0.00;0.00;;;;;;;5.30;80.72;98947.66;15609313;28;20056;-50
2024/01/04 08:16:58;;;;;;;0.00;0.00;;;;;;;5.20;79.73;98951.88;15609772;28;20053;-51
2024/01/04 08:24:31;;;;;;;0.00;0.00;;;;;;;5.35;78.36;98970.94;15592409;28;20052;-49
2024/01/04 08:32:08;;;;;;;0.00;0.00;;;;;;;5.23;78.57;98964.75;15615145;28;20048;-50
2024/01/04 08:39:42;;;;;;;0.22;0.22;;;;;;;5.16;79.01;98982.59;15620261;28;20047;-49
2024/01/04 08:47:17;;;;;;;0.00;0.00;;;;;;;4.90;79.83;98983.63;15618491;28;20120;-47
2024/01/04 08:54:50;;;;;;;0.00;0.00;;;;;;;4.86;80.22;99007.97;15613913;28;20049;-54
2024/01/04 09:02:27;;;;;;;;;;;;;;;4.72;80.74;99021.59;15619844;28;20037;-49
2024/01/04 09:10:00;;;;;;;0.00;0.00;;;;;;;4.36;82.97;99038.94;15601100;28;19921;-48
2024/01/04 09:17:36;;;;;;;0.00;0.00;;;;;;;4.65;83.75;99053.50;15618090;28;20434;-51
2024/01/04 09:25:10;;;;;;;0.00;0.00;;;;;;;4.53;84.15;99071.97;15599518;28;20064;-49
2024/01/04 09:32:45;;;;;;;0.00;0.00;;;;;;;4.38;84.64;99076.72;15599490;28;20053;-52
2024/01/04 09:40:20;;;;;;;0.20;0.20;;;;;;;4.45;84.72;99087.34;15598587;28;20041;-47
2024/01/04 09:47:56;;;;;;;0.00;0.00;;;;;;;4.04;83.25;99084.00;15615842;28;20038;-47
2024/01/04 09:55:30;;;;;;;0.13;0.13;;;;;;;3.82;80.78;99102.03;15613549;28;20052;-52
2024/01/04 10:03:12;;;;;;;0.00;0.00;;;;;;;3.64;80.26;99112.44;15597721;28;20052;-49
2024/01/04 10:10:48;;;;;;;0.00;0.00;;;;;;;3.47;82.57;99135.09;15616044;28;20353;-48
2024/01/04 10:18:29;;;;;;;0.00;0.00;;;;;;;3.39;81.19;99145.91;15613570;28;20045;-51
2024/01/04 10:26:08;;;;;;;0.00;0.00;;;;;;;3.53;80.21;99145.69;15613940;28;20100;-50
2024/01/04 10:33:45;;;;;;;0.08;0.08;;;;;;;3.66;78.25;99160.81;15612742;28;20417;-49
2024/01/04 10:41:19;;;;;;;0.00;0.00;;;;;;;3.67;75.61;99156.31;15603428;28;20056;-49
2024/01/04 10:48:55;;;;;;;0.00;0.00;;;;;;;3.75;74.58;99188.78;15615199;28;20041;-48
2024/01/04 10:56:30;;;;;;;0.00;0.00;;;;;;;4.03;73.97;99204.50;15614713;28;20045;-47
2024/01/04 11:04:05;;;;;;;0.00;0.00;;;;;;;3.80;74.28;99204.91;15613994;28;20142;-50
2024/01/04 11:11:40;;;;;;;0.08;0.08;;;;;;;3.75;73.00;99212.66;15614812;28;20049;-49
2024/01/04 11:19:23;;;;;;;0.05;0.05;;;;;;;3.42;72.85;99225.06;15597328;28;20077;-50
2024/01/04 11:26:59;;;;;;;0.00;0.00;;;;;;;3.79;71.62;99227.16;15614565;28;20074;-48
2024/01/04 11:34:36;;;;;;;0.00;0.00;;;;;;;3.69;71.87;99228.59;15614527;28;20048;-49
2024/01/04 11:42:13;;;;;;;0.00;0.00;;;;;;;3.67;72.45;99244.69;15611651;28;20046;-53
2024/01/04 11:49:48;;;;;;;0.00;0.00;;;;;;;3.84;72.19;99245.94;15579482;28;20042;-51
2024/01/04 11:57:23;;;;;;;0.00;0.00;;;;;;;3.83;72.70;99265.53;15609245;28;20121;-50
2024/01/04 12:04:59;;;;;;;0.00;0.00;;;;;;;3.85;72.03;99281.25;15613251;28;20095;-50
2024/01/04 12:12:33;;;;;;;0.00;0.00;;;;;;;3.83;71.43;99310.66;15622122;28;20049;-51
2024/01/04 12:20:10;;;;;;;;;;;;;;;3.53;72.56;99318.13;15625227;28;20080;-47
2024/01/04 12:27:45;;;;;;;0.00;0.00;;;;;;;3.17;72.99;99329.03;15604126;28;19975;-47
2024/01/04 12:35:20;;;;;;;0.00;0.00;;;;;;;3.22;73.67;99352.31;15599048;28;20381;-48
2024/01/04 12:42:53;;;;;;;0.00;0.00;;;;;;;3.07;74.61;99370.97;15610968;28;20055;-49
2024/01/04 12:50:28;;;;;;;;;;;;;;;3.21;74.24;99390.41;15607976;28;20418;-52
2024/01/04 12:58:02;;;;;;;0.00;0.00;;;;;;;3.37;73.73;99397.25;15609553;28;19921;-48
2024/01/04 13:05:37;;;;;;;0.00;0.00;;;;;;;3.07;74.08;99405.41;15735411;22;20044;-52
2024/01/04 13:13:10;;;;;;;0.85;0.85;;;;;;;3.23;74.24;99441.44;15742499;28;20103;-52
2024/01/04 13:20:46;;;;;;;0.00;0.00;;;;;;;3.09;74.49;99456.44;15711281;28;20047;-53
2024/01/04 13:28:20;;;;;;;0.00;0.00;;;;;;;2.94;75.38;99477.72;15709924;28;20091;-54
2024/01/04 13:35:56;;;;;;;;;;;;;;;3.10;75.58;99510.25;15725828;28;20080;-52
2024/01/04 13:43:29;;;;;;;0.00;0.00;;;;;;;3.05;76.15;99524.09;15724606;28;19925;-53
2024/01/04 13:51:07;;;;;;;0.00;0.00;;;;;;;2.86;77.54;99548.59;15728242;28;20041;-51
2024/01/04 13:58:42;;;;;;;0.00;0.00;;;;;;;2.86;78.56;99562.66;15734408;28;20086;-52
2024/01/04 14:06:18;;;;;;;0.00;0.00;;;;;;;2.88;78.45;99583.66;15725952;28;20068;-52
2024/01/04 14:13:51;;;;;;;0.00;0.00;;;;;;;3.13;77.30;99608.81;15740177;28;20090;-55
2024/01/04 14:21:27;;;;;;;0.00;0.00;;;;;;;3.22;77.40;99642.13;15720232;28;20512;-53
2024/01/04 14:29:00;;;;;;;0.00;0.00;;;;;;;3.03;77.98;99690.44;15735879;28;20041;-51
2024/01/04 14:36:35;;;;;;;0.20;0.20;;;;;;;2.72;79.18;99698.66;15720776;28;20469;-53
2024/01/04 14:44:08;;;;;;;0.00;0.00;;;;;;;2.79;79.55;99716.28;15738177;28;20041;-55
2024/01/04 14:51:43;;;;;;;0.00;0.00;;;;;;;2.51;79.79;99725.88;15737185;28;20071;-52
2024/01/04 14:59:17;;;;;;;0.00;0.00;;;;;;;2.85;78.38;99753.66;15736997;28;20086;-55
2024/01/04 15:06:53;;;;;;;0.00;0.00;;;;;;;2.85;76.74;99767.75;15737356;28;20123;-49
2024/01/04 15:14:27;;;;;;;0.00;0.00;;;;;;;2.53;76.44;99780.34;15717178;28;20640;-52
2024/01/04 15:22:03;;;;;;;0.00;0.00;;;;;;;2.62;75.39;99794.31;15732879;28;20485;-52
2024/01/04 15:29:38;;;;;;;0.00;0.00;;;;;;;2.23;76.20;99827.13;15689270;28;20057;-53
2024/01/04 15:37:14;;;;;;;0.03;0.03;;;;;;;2.62;75.26;99855.25;15735160;28;20060;-53
2024/01/04 15:44:47;;;;;;;0.00;0.00;;;;;;;2.59;74.58;99874.16;15751405;28;20140;-54
2024/01/04 15:52:25;;;;;;;0.00;0.00;;;;;;;2.44;75.09;99886.53;15752243;28;20131;-53
2024/01/04 15:59:58;;;;;;;0.00;0.00;;;;;;;2.78;72.85;99888.72;15726713;28;20033;-51
2024/01/04 16:07:33;;;;;;;0.00;0.00;;;;;;;2.52;72.90;99905.03;15746604;28;20044;-53
2024/01/04 16:15:07;;;;;;;0.17;0.17;;;;;;;1.97;74.70;99920.13;15746160;28;20402;-52
2024/01/04 16:22:45;;;;;;;0.00;0.00;;;;;;;2.11;74.92;99945.03;15749869;28;20068;-51
2024/01/04 16:30:18;;;;;;;0.00;0.00;;;;;;;2.01;74.33;99957.66;15747678;28;20060;-52
2024/01/04 16:37:54;;;;;;;0.00;0.00;;;;;;;2.65;71.81;99974.09;15746469;28;20045;-52
2024/01/04 16:45:28;;;;;;;0.20;0.20;;;;;;;2.34;73.63;99994.53;15746699;28;20105;-53
2024/01/04 16:53:03;;;;;;;0.00;0.00;;;;;;;2.25;74.00;100007.00;15745926;28;20044;-53
2024/01/04 17:00:37;;;;;;;0.00;0.00;;;;;;;1.87;73.41;100017.44;15722564;28;20037;-52
2024/01/04 17:08:12;;;;;;;0.00;0.00;;;;;;;1.88;72.90;100034.97;15745960;28;20145;-52
2024/01/04 17:15:46;;;;;;;0.00;0.00;;;;;;;1.71;73.00;100059.81;15727339;28;20582;-55
2024/01/04 17:23:24;;;;;;;0.00;0.00;;;;;;;1.98;72.84;100077.09;15742018;28;20049;-53
2024/01/04 17:30:57;;;;;;;0.00;0.00;;;;;;;1.79;71.78;100089.72;15744534;28;20041;-51
2024/01/04 17:38:32;;;;;;;;;;;;;;;1.85;71.98;100098.81;15744811;28;20044;-52
2024/01/04 17:46:05;;;;;;;0.00;0.00;;;;;;;1.67;72.83;100106.13;15742780;28;19956;-54
2024/01/04 17:53:40;;;;;;;;;;;;;;;1.68;72.78;100113.91;15743704;28;20041;-55
2024/01/04 18:01:13;;;;;;;0.00;0.00;;;;;;;1.83;72.64;100106.09;15724809;28;19920;-54
2024/01/04 18:08:48;;;;;;;;;;;;;;;2.23;71.04;100113.06;15747452;28;20040;-51
2024/01/04 18:16:21;;;;;;;0.00;0.00;;;;;;;2.47;70.73;100121.91;15743764;28;19944;-52
2024/01/04 18:23:56;;;;;;;0.00;0.00;;;;;;;2.31;70.32;100128.09;15715273;28;20107;-51
2024/01/04 18:31:30;;;;;;;0.00;0.00;;;;;;;2.03;70.97;100141.75;15707126;28;20061;-50
2024/01/04 18:39:05;;;;;;;0.00;0.00;;;;;;;2.03;70.84;100152.34;15725403;28;20412;-51
2024/01/04 18:46:39;;;;;;;0.05;0.05;;;;;;;2.45;68.97;100163.66;15729270;28;20090;-54
2024/01/04 18:54:14;;;;;;;0.00;0.00;;;;;;;2.01;70.00;100183.47;15732854;28;20040;-54
2024/01/04 19:01:48;;;;;;;0.00;0.00;;;;;;;2.68;69.92;100176.97;15740680;28;20071;-54
2024/01/04 19:09:24;;;;;;;0.10;0.10;;;;;;;2.29;70.40;100175.94;15739611;28;20052;-51
2024/01/04 19:16:57;;;;;;;0.20;0.20;;;;;;;2.45;69.54;100171.59;15732853;28;20064;-53
2024/01/04 19:24:33;;;;;;;0.00;0.00;;;;;;;2.13;71.60;100191.88;15737863;28;20043;-51
2024/01/04 19:32:06;;;;;;;0.00;0.00;;;;;;;2.22;71.01;100203.28;15686520;28;20049;-51
2024/01/04 19:39:41;;;;;;;1.23;1.13;;;;;;;1.97;72.02;100218.38;15716786;28;20063;-53
2024/01/04 19:47:14;;;;;;;0.35;0.25;;;;;;;1.66;72.29;100208.47;15716110;28;20050;-50
2024/01/04 19:54:49;;;;;;;;;;;;;;;2.16;70.68;100223.31;15737424;28;20071;-50
2024/01/04 20:02:23;;;;;;;0.00;0.00;;;;;;;1.99;70.61;100229.63;15735853;28;19963;-51
2024/01/04 20:09:58;;;;;;;3.30;2.17;;;;;;;1.91;71.80;100237.56;15735982;28;20041;-51
2024/01/04 20:17:33;;;;;;;0.00;0.00;;;;;;;1.92;71.09;100242.69;15714985;28;20110;-51
2024/01/04 20:25:09;;;;;;;0.17;0.17;;;;;;;1.79;71.34;100248.47;15737896;28;20064;-49
2024/01/04 20:32:47;;;;;;;0.00;0.00;;;;;;;1.63;72.03;100237.06;15730091;28;20040;-51
2024/01/04 20:40:21;;;;;;;0.73;0.73;;;;;;;1.43;72.27;100257.72;15746887;28;20044;-51
2024/01/04 20:47:55;;;;;;;0.20;0.20;;;;;;;1.50;72.40;100275.41;15721628;28;20034;-51
2024/01/04 20:55:30;;;;;;;0.55;0.55;;;;;;;1.32;72.60;100285.28;15683844;28;20068;-51
2024/01/04 21:03:04;;;;;;;0.00;0.00;;;;;;;1.21;74.17;100293.50;15700811;28;20501;-52
2024/01/04 21:10:39;;;;;;;0.00;0.00;;;;;;;1.54;74.00;100302.38;15737864;28;20103;-55
2024/01/04 21:18:13;;;;;;;0.00;0.00;;;;;;;1.70;72.55;100307.69;15719951;28;20352;-53
2024/01/04 21:25:51;;;;;;;0.00;0.00;;;;;;;1.75;73.91;100301.91;15723732;28;20037;-51
2024/01/04 21:33:25;;;;;;;1.88;1.27;;;;;;;1.94;72.45;100320.09;15717957;28;20049;-50
2024/01/04 21:41:00;;;;;;;0.00;0.00;;;;;;;1.81;73.46;100338.28;15723800;28;20036;-54
2024/01/04 21:48:33;;;;;;;0.00;0.00;;;;;;;1.89;71.91;100330.34;15719826;28;20045;-52
2024/01/04 21:56:08;;;;;;;0.00;0.00;;;;;;;1.73;72.63;100328.53;15740537;28;20041;-51
2024/01/04 22:03:42;;;;;;;0.00;0.00;;;;;;;1.75;73.48;100326.53;15740627;28;20048;-55
2024/01/04 22:11:19;;;;;;;0.10;0.10;;;;;;;1.93;73.33;100329.03;15702340;28;20520;-52
2024/01/04 22:18:54;;;;;;;0.00;0.00;;;;;;;1.87;72.59;100323.59;15737082;28;20037;-51
2024/01/04 22:26:30;;;;;;;7.97;0.65;;;;;;;1.44;74.12;100312.25;15738565;28;20094;-54
2024/01/04 22:34:03;;;;;;;0.00;0.00;;;;;;;1.26;74.97;100313.22;15737829;28;20046;-52
2024/01/04 22:41:42;;;;;;;0.00;0.00;;;;;;;1.67;73.55;100331.81;15740764;28;20457;-52
2024/01/04 22:49:17;;;;;;;0.70;0.70;;;;;;;1.67;74.31;100337.09;15738807;28;20108;-55
2024/01/04 22:56:52;;;;;;;0.00;0.00;;;;;;;1.40;75.62;100347.94;15728360;28;20482;-52
2024/01/04 23:04:26;;;;;;;1.20;0.60;;;;;;;1.79;74.57;100332.34;15703604;28;20082;-53
2024/01/04 23:12:01;;;;;;;0.13;0.13;;;;;;;1.81;74.53;100332.16;15735156;28;20112;-52
2024/01/04 23:19:34;;;;;;;0.00;0.00;;;;;;;1.92;72.24;100337.16;15749087;28;20036;-54
2024/01/04 23:27:09;;;;;;;0.00;0.00;;;;;;;2.23;72.57;100326.72;15748497;28;20037;-55
2024/01/04 23:34:43;;;;;;;0.00;0.00;;;;;;;1.90;74.18;100325.88;15702420;28;20049;-52
2024/01/04 23:42:19;;;;;;;0.00;0.00;;;;;;;1.41;77.22;100320.53;15716122;28;20054;-53
2024/01/04 23:49:52;;;;;;;0.00;0.00;;;;;;;1.36;77.58;100302.50;15727468;28;20573;-52
2024/01/04 23:57:27;;;;;;;0.00;0.00;;;;;;;1.44;76.98;100334.22;15727338;28;20128;-52
